createdAt,value
2022-12-15T00:02:15.031Z,100506.03
2022-12-15T00:04:59.946Z,100499.94
2022-12-15T00:07:44.822Z,100506.03
2022-12-15T00:10:29.639Z,100505.06
2022-12-15T00:13:14.552Z,100516.38
2022-12-15T00:15:59.308Z,100509.25
2022-12-15T00:18:44.502Z,100506.41
2022-12-15T00:21:29.323Z,100519.72
2022-12-15T00:24:14.244Z,100501.50
2022-12-15T00:26:58.935Z,100519.59
2022-12-15T00:29:43.739Z,100501.63
2022-12-15T00:32:28.444Z,100519.25
2022-12-15T00:35:13.287Z,100523.63
2022-12-15T00:37:58.110Z,100520.06
2022-12-15T00:40:24.642Z,100517.47
2022-12-15T00:42:51.046Z,100526.03
2022-12-15T00:45:17.425Z,100518.31
2022-12-15T00:47:44.021Z,100521.59
2022-12-15T00:50:29.062Z,100523.16
2022-12-15T00:53:13.866Z,100519.09
2022-12-15T00:55:58.775Z,100519.47
2022-12-15T00:58:43.566Z,100527.09
2022-12-15T01:01:29.505Z,100531.13
2022-12-15T01:04:14.964Z,100524.13
2022-12-15T01:07:00.081Z,100532.94
2022-12-15T01:09:45.135Z,100544.94
2022-12-15T01:12:30.000Z,100529.72
2022-12-15T01:15:15.033Z,100534.47
2022-12-15T01:17:59.774Z,100535.56
2022-12-15T01:20:26.224Z,100536.59
2022-12-15T01:22:55.218Z,100544.34
2022-12-15T01:25:24.791Z,100535.06
2022-12-15T01:27:51.788Z,100543.75
2022-12-15T01:30:20.766Z,100541.84
2022-12-15T01:32:47.207Z,100535.53
2022-12-15T01:35:14.009Z,100547.41
2022-12-15T01:37:40.740Z,100542.19
2022-12-15T01:40:30.132Z,100543.38
2022-12-15T01:42:56.510Z,100552.53
2022-12-15T01:45:28.914Z,100561.94
2022-12-15T01:47:59.262Z,100554.28
2022-12-15T01:50:26.277Z,100557.75
2022-12-15T01:52:54.894Z,100562.84
2022-12-15T01:55:25.473Z,100561.28
2022-12-15T01:57:56.259Z,100563.66
2022-12-15T02:00:22.664Z,100563.31
2022-12-15T02:02:49.343Z,100568.28
2022-12-15T02:05:17.671Z,100559.75
2022-12-15T02:07:44.074Z,100558.69
2022-12-15T02:10:11.298Z,100565.34
2022-12-15T02:13:08.271Z,100567.84
2022-12-15T02:15:50.660Z,100565.34
2022-12-15T02:18:27.952Z,100572.97
2022-12-15T02:21:17.701Z,100570.97
2022-12-15T02:23:52.951Z,100572.63
2022-12-15T02:26:28.377Z,100568.22
2022-12-15T02:29:39.253Z,100576.78
2022-12-15T02:32:14.200Z,100572.97
2022-12-15T02:34:48.282Z,100573.59
2022-12-15T02:37:20.704Z,100569.19
2022-12-15T02:39:47.142Z,100570.28
2022-12-15T02:42:13.946Z,100576.31
2022-12-15T02:44:43.574Z,100580.75
2022-12-15T02:47:27.490Z,100585.13
2022-12-15T02:50:18.127Z,100581.78
2022-12-15T02:53:00.580Z,100583.94
2022-12-15T02:56:06.446Z,100589.09
2022-12-15T02:58:44.534Z,100577.66
2022-12-15T03:01:22.406Z,100589.66
2022-12-15T03:03:50.443Z,100584.41
2022-12-15T03:06:17.001Z,100588.84
2022-12-15T03:08:43.534Z,100583.72
2022-12-15T03:11:09.997Z,100584.78
2022-12-15T03:13:36.430Z,100585.84
2022-12-15T03:16:03.166Z,100587.75
2022-12-15T03:18:29.731Z,100593.22
2022-12-15T03:20:56.138Z,100589.75
2022-12-15T03:23:23.052Z,100590.13
2022-12-15T03:25:50.387Z,100593.53
2022-12-15T03:28:17.534Z,100586.06
2022-12-15T03:30:44.814Z,100591.41
2022-12-15T03:33:11.386Z,100587.81
2022-12-15T03:35:37.798Z,100593.91
2022-12-15T03:38:04.229Z,100593.66
2022-12-15T03:40:30.631Z,100585.81
2022-12-15T03:42:58.093Z,100588.00
2022-12-15T03:45:28.488Z,100598.09
2022-12-15T03:47:56.241Z,100589.66
2022-12-15T03:50:26.160Z,100602.00
2022-12-15T03:52:55.837Z,100595.22
2022-12-15T03:55:23.594Z,100596.53
2022-12-15T03:57:51.129Z,100599.84
2022-12-15T04:00:19.218Z,100603.31
2022-12-15T04:02:47.086Z,100607.84
2022-12-15T04:05:31.283Z,100607.72
2022-12-15T04:07:59.329Z,100608.44
2022-12-15T04:10:33.667Z,100600.09
2022-12-15T04:13:09.714Z,100600.09
2022-12-15T04:15:38.240Z,100594.13
2022-12-15T04:18:06.765Z,100598.66
2022-12-15T04:20:33.496Z,100594.25
2022-12-15T04:23:02.001Z,100599.38
2022-12-15T04:25:46.955Z,100587.34
2022-12-15T04:28:32.314Z,100589.72
2022-12-15T04:31:40.043Z,100584.41
2022-12-15T04:34:29.448Z,100587.72
2022-12-15T04:37:14.823Z,100592.13
2022-12-15T04:40:04.584Z,100597.56
2022-12-15T04:42:51.376Z,100595.91
2022-12-15T04:45:41.383Z,100591.97
2022-12-15T04:48:26.715Z,100595.41
2022-12-15T04:51:11.967Z,100597.91
2022-12-15T04:53:56.710Z,100591.16
2022-12-15T04:56:41.444Z,100586.72
2022-12-15T04:59:26.439Z,100595.91
2022-12-15T05:02:11.304Z,100599.50
2022-12-15T05:04:56.528Z,100600.53
2022-12-15T05:07:43.550Z,100602.22
2022-12-15T05:10:28.763Z,100608.03
2022-12-15T05:13:13.671Z,100609.72
2022-12-15T05:15:58.663Z,100609.72
2022-12-15T05:18:45.897Z,100613.19
2022-12-15T05:21:30.751Z,100614.59
2022-12-15T05:24:15.711Z,100610.81
2022-12-15T05:27:00.550Z,100612.03
2022-12-15T05:29:45.406Z,100614.66
2022-12-15T05:32:13.305Z,100618.19
2022-12-15T05:34:39.700Z,100608.56
2022-12-15T05:37:07.284Z,100609.41
2022-12-15T05:39:34.018Z,100617.38
2022-12-15T05:42:00.597Z,100624.28
2022-12-15T05:44:27.962Z,100617.47
2022-12-15T05:46:54.436Z,100618.19
2022-12-15T05:49:23.220Z,100621.06
2022-12-15T05:51:49.650Z,100630.34
2022-12-15T05:54:18.930Z,100619.75
2022-12-15T05:56:46.247Z,100624.28
2022-12-15T05:59:13.639Z,100624.16
2022-12-15T06:01:40.172Z,100624.88
2022-12-15T06:04:07.770Z,100624.16
2022-12-15T06:06:34.291Z,100622.50
2022-12-15T06:09:00.676Z,100632.63
2022-12-15T06:11:28.181Z,100623.81
2022-12-15T06:13:55.867Z,100631.34
2022-12-15T06:16:24.506Z,100634.75
2022-12-15T06:18:57.045Z,100630.50
2022-12-15T06:21:27.131Z,100637.38
2022-12-15T06:23:55.026Z,100632.75
2022-12-15T06:26:24.327Z,100636.69
2022-12-15T06:28:51.740Z,100642.16
2022-12-15T06:31:22.719Z,100634.56
2022-12-15T06:33:51.044Z,100640.59
2022-12-15T06:36:20.011Z,100634.66
2022-12-15T06:38:49.988Z,100644.31
2022-12-15T06:41:19.623Z,100643.56
2022-12-15T06:43:50.879Z,100641.31
2022-12-15T06:46:17.630Z,100635.25
2022-12-15T06:48:45.900Z,100637.78
2022-12-15T06:51:17.127Z,100642.78
2022-12-15T06:53:53.836Z,100642.06
2022-12-15T06:56:30.406Z,100653.00
2022-12-15T06:58:59.711Z,100645.41
2022-12-15T07:01:26.829Z,100647.28
2022-12-15T07:03:53.709Z,100649.78
2022-12-15T07:06:20.808Z,100646.44
2022-12-15T07:08:53.233Z,100653.38
2022-12-15T07:11:21.731Z,100651.25
2022-12-15T07:13:54.687Z,100649.31
2022-12-15T07:16:22.849Z,100658.00
2022-12-15T07:18:50.020Z,100654.53
2022-12-15T07:21:17.038Z,100650.88
2022-12-15T07:23:54.706Z,100661.84
2022-12-15T07:26:22.603Z,100667.91
2022-12-15T07:28:49.341Z,100662.19
2022-12-15T07:31:16.013Z,100663.75
2022-12-15T07:33:42.745Z,100665.50
2022-12-15T07:36:09.328Z,100655.41
2022-12-15T07:38:36.527Z,100658.25
2022-12-15T07:41:05.491Z,100654.91
2022-12-15T07:43:32.808Z,100662.41
2022-12-15T07:45:59.819Z,100671.72
2022-12-15T07:48:27.386Z,100657.09
2022-12-15T07:51:02.897Z,100653.00
2022-12-15T07:53:35.216Z,100663.00
2022-12-15T07:56:08.487Z,100668.97
2022-12-15T07:58:36.068Z,100688.50
2022-12-15T08:01:04.788Z,100689.13
2022-12-15T08:03:31.913Z,100689.47
2022-12-15T08:06:03.745Z,100657.44
2022-12-15T08:08:31.215Z,100682.00
2022-12-15T08:10:59.143Z,100676.75
2022-12-15T08:14:00.917Z,100672.72
2022-12-15T08:16:12.818Z,100682.59
2022-12-15T08:18:39.668Z,100675.06
2022-12-15T08:21:11.628Z,100678.28
2022-12-15T08:23:40.252Z,100680.78
2022-12-15T08:26:12.364Z,100678.03
2022-12-15T08:28:40.374Z,100691.53
2022-12-15T08:31:09.382Z,100686.28
2022-12-15T08:33:37.200Z,100701.91
2022-12-15T08:36:09.464Z,100700.94
2022-12-15T08:38:38.707Z,100707.03
2022-12-15T08:41:09.314Z,100711.91
2022-12-15T08:43:41.146Z,100707.88
2022-12-15T08:46:12.944Z,100704.28
2022-12-15T08:48:39.915Z,100708.91
2022-12-15T08:51:06.464Z,100704.03
2022-12-15T08:53:32.904Z,100712.84
2022-12-15T08:56:07.253Z,100713.94
2022-12-15T08:58:34.009Z,100713.34
2022-12-15T09:01:06.986Z,100714.56
2022-12-15T09:03:35.148Z,100705.97
2022-12-15T09:06:06.060Z,100701.78
2022-12-15T09:08:33.069Z,100722.78
2022-12-15T09:11:00.810Z,100727.03
2022-12-15T09:13:27.585Z,100728.81
2022-12-15T09:16:13.994Z,100723.59
2022-12-15T09:18:45.431Z,100733.00
2022-12-15T09:21:13.220Z,100740.88
2022-12-15T09:23:40.814Z,100728.13
2022-12-15T09:26:09.723Z,100730.88
2022-12-15T09:28:37.745Z,100728.84
2022-12-15T09:31:29.336Z,100740.41
2022-12-15T09:33:58.433Z,100726.72
2022-12-15T09:36:26.329Z,100725.75
2022-12-15T09:38:52.954Z,100730.25
2022-12-15T09:41:28.405Z,100729.09
2022-12-15T09:43:59.937Z,100736.81
2022-12-15T09:47:06.098Z,100739.56
2022-12-15T09:49:49.575Z,100735.88
2022-12-15T09:52:23.708Z,100749.78
2022-12-15T09:54:50.132Z,100752.38
2022-12-15T09:57:31.510Z,100751.19
2022-12-15T10:00:15.828Z,100760.38
2022-12-15T10:03:18.125Z,100757.31
2022-12-15T10:06:16.115Z,100756.47
2022-12-15T10:08:50.729Z,100752.66
2022-12-15T10:11:33.335Z,100752.19
2022-12-15T10:14:09.416Z,100739.22
2022-12-15T10:16:55.442Z,100743.50
2022-12-15T10:19:50.219Z,100740.22
2022-12-15T10:22:23.721Z,100751.47
2022-12-15T10:28:02.089Z,100764.00
2022-12-15T10:30:28.592Z,100748.84
2022-12-15T10:33:10.681Z,100750.06
2022-12-15T10:35:39.665Z,100745.69
2022-12-15T10:38:21.986Z,100731.88
2022-12-15T10:40:53.064Z,100745.56
2022-12-15T10:43:25.775Z,100745.50
2022-12-15T10:46:13.636Z,100748.97
2022-12-15T10:51:37.211Z,100746.50
2022-12-15T10:54:13.911Z,100757.88
2022-12-15T10:56:56.820Z,100751.09
2022-12-15T10:59:23.463Z,100740.03
2022-12-15T11:01:50.825Z,100742.72
2022-12-15T11:04:32.543Z,100749.81
2022-12-15T11:07:01.353Z,100734.66
2022-12-15T11:09:35.527Z,100726.75
2022-12-15T11:12:34.636Z,100723.28
2022-12-15T11:15:01.450Z,100715.69
2022-12-15T11:17:40.782Z,100727.59
2022-12-15T11:20:18.386Z,100722.75
2022-12-15T11:22:52.250Z,100717.94
2022-12-15T11:25:33.948Z,100722.72
2022-12-15T11:28:05.875Z,100721.00
2022-12-15T11:30:42.398Z,100727.75
2022-12-15T11:33:10.443Z,100726.69
2022-12-15T11:35:46.116Z,100728.44
2022-12-15T11:38:34.644Z,100734.06
2022-12-15T11:41:13.920Z,100729.88
2022-12-15T11:44:24.003Z,100738.88
2022-12-15T11:47:10.617Z,100734.13
2022-12-15T11:50:07.609Z,100743.16
2022-12-15T11:52:44.651Z,100742.66
2022-12-15T11:55:41.036Z,100739.34
2022-12-15T11:58:16.956Z,100734.22
2022-12-15T12:01:12.106Z,100734.19
2022-12-15T12:04:00.220Z,100739.31
2022-12-15T12:06:35.368Z,100730.47
2022-12-15T12:09:25.003Z,100724.34
2022-12-15T12:12:06.077Z,100722.97
2022-12-15T12:14:57.755Z,100724.91
2022-12-15T12:18:02.340Z,100719.91
2022-12-15T12:20:43.507Z,100715.34
2022-12-15T12:23:17.731Z,100720.50
2022-12-15T12:26:02.905Z,100715.94
2022-12-15T12:28:58.101Z,100717.25
2022-12-15T12:31:24.474Z,100718.91
2022-12-15T12:33:55.523Z,100710.44
2022-12-15T12:36:22.088Z,100709.09
2022-12-15T12:38:52.662Z,100716.03
2022-12-15T12:41:36.737Z,100710.19
2022-12-15T12:44:10.884Z,100693.97
2022-12-15T12:46:45.398Z,100686.59
2022-12-15T12:49:38.776Z,100693.56
2022-12-15T12:52:15.320Z,100692.34
2022-12-15T12:54:48.634Z,100684.31
2022-12-15T12:57:37.461Z,100686.25
2022-12-15T13:00:20.261Z,100679.06
2022-12-15T13:03:12.515Z,100681.53
2022-12-15T13:05:41.354Z,100676.41
2022-12-15T13:08:10.893Z,100670.19
2022-12-15T13:10:45.769Z,100665.91
2022-12-15T13:13:32.525Z,100662.56
2022-12-15T13:16:13.864Z,100660.34
2022-12-15T13:19:03.167Z,100665.91
2022-12-15T13:21:41.880Z,100669.63
2022-12-15T13:24:41.293Z,100662.84
2022-12-15T13:27:12.374Z,100666.03
2022-12-15T13:30:15.827Z,100662.41
2022-12-15T13:32:51.352Z,100661.00
2022-12-15T13:35:26.164Z,100668.22
2022-12-15T13:38:02.990Z,100670.31
2022-12-15T13:40:50.899Z,100669.31
2022-12-15T13:43:26.661Z,100664.06
2022-12-15T13:46:00.332Z,100662.84
2022-12-15T13:48:37.628Z,100656.59
2022-12-15T13:51:22.867Z,100660.22
2022-12-15T13:53:58.235Z,100660.34
2022-12-15T13:56:41.459Z,100662.69
2022-12-15T13:59:26.074Z,100656.72
2022-12-15T14:01:54.085Z,100661.84
2022-12-15T14:04:21.677Z,100662.00
2022-12-15T14:06:53.708Z,100658.53
2022-12-15T14:09:25.823Z,100665.91
2022-12-15T14:14:47.287Z,100667.69
2022-12-15T14:17:18.029Z,100673.94
2022-12-15T14:19:46.859Z,100663.81
2022-12-15T14:22:30.105Z,100665.06
2022-12-15T14:25:03.139Z,100665.91
2022-12-15T14:27:32.026Z,100659.00
2022-12-15T14:30:22.438Z,100652.19
2022-12-15T14:32:58.342Z,100650.78
2022-12-15T14:35:32.390Z,100653.69
2022-12-15T14:38:01.732Z,100651.19
2022-12-15T14:40:30.163Z,100643.72
2022-12-15T14:42:56.785Z,100650.09
2022-12-15T14:45:31.168Z,100649.28
2022-12-15T14:50:58.756Z,100626.28
2022-12-15T14:53:28.153Z,100636.25
2022-12-15T14:55:54.838Z,100632.78
2022-12-15T14:58:35.207Z,100637.09
2022-12-15T15:01:03.334Z,100638.31
2022-12-15T15:03:11.486Z,100743.13
2022-12-15T15:03:40.871Z,100639.69
2022-12-15T15:06:18.515Z,100638.59
2022-12-15T15:08:50.777Z,100641.38
2022-12-15T15:11:37.613Z,100628.59
2022-12-15T15:14:17.064Z,100634.41
2022-12-15T15:16:44.194Z,100635.81
2022-12-15T15:19:20.726Z,100631.50
2022-12-15T15:21:53.134Z,100617.13
2022-12-15T15:24:25.525Z,100623.06
2022-12-15T15:26:52.900Z,100626.09
2022-12-15T15:29:49.043Z,100631.22
2022-12-15T15:32:18.200Z,100620.41
2022-12-15T15:34:47.594Z,100631.91
2022-12-15T15:37:23.488Z,100625.25
2022-12-15T15:39:51.444Z,100629.81
2022-12-15T15:42:17.888Z,100641.16
2022-12-15T15:44:44.907Z,100636.75
2022-12-15T15:47:27.174Z,100637.69
2022-12-15T15:49:55.677Z,100622.75
2022-12-15T15:52:22.933Z,100634.81
2022-12-15T15:54:50.055Z,100636.59
2022-12-15T15:57:18.046Z,100623.72
2022-12-15T15:59:46.343Z,100623.59
2022-12-15T16:02:14.454Z,100624.53
2022-12-15T16:04:42.440Z,100621.25
2022-12-15T16:07:27.573Z,100626.50
2022-12-15T16:09:54.613Z,100629.81
2022-12-15T16:12:31.404Z,100617.19
2022-12-15T16:14:57.754Z,100618.63
2022-12-15T16:17:25.421Z,100611.94
2022-12-15T16:19:51.857Z,100622.31
2022-12-15T16:22:20.666Z,100613.03
2022-12-15T16:24:47.138Z,100616.50
2022-12-15T16:27:14.825Z,100618.28
2022-12-15T16:29:42.639Z,100634.22
2022-12-15T16:32:10.781Z,100637.69
2022-12-15T16:34:37.223Z,100629.09
2022-12-15T16:37:04.235Z,100634.91
2022-12-15T16:39:34.928Z,100633.25
2022-12-15T16:42:02.118Z,100641.56
2022-12-15T16:44:29.636Z,100647.97
2022-12-15T16:46:57.153Z,100646.00
2022-12-15T16:49:23.882Z,100647.84
2022-12-15T16:51:53.171Z,100644.06
2022-12-15T16:54:25.276Z,100637.81
2022-12-15T16:56:53.692Z,100641.31
2022-12-15T16:59:37.862Z,100637.44
2022-12-15T17:02:25.028Z,100647.97
2022-12-15T17:04:52.671Z,100646.84
2022-12-15T17:07:20.601Z,100651.41
2022-12-15T17:09:48.743Z,100639.66
2022-12-15T17:12:17.506Z,100647.53
2022-12-15T17:14:45.025Z,100650.16
2022-12-15T17:17:15.903Z,100640.88
2022-12-15T17:20:19.393Z,100642.94
2022-12-15T17:22:33.270Z,100654.53
2022-12-15T17:24:59.797Z,100663.13
2022-12-15T17:27:29.645Z,100671.72
2022-12-15T17:29:59.132Z,100674.34
2022-12-15T17:32:25.630Z,100676.84
2022-12-15T17:34:52.027Z,100658.72
2022-12-15T17:37:18.864Z,100675.34
2022-12-15T17:39:50.904Z,100673.56
2022-12-15T17:42:20.309Z,100670.09
2022-12-15T17:44:48.062Z,100665.69
2022-12-15T17:47:16.463Z,100673.84
2022-12-15T17:49:43.447Z,100673.38
2022-12-15T17:52:30.422Z,100669.09
2022-12-15T17:54:57.414Z,100667.56
2022-12-15T17:57:24.374Z,100669.50
2022-12-15T17:59:50.803Z,100671.44
2022-12-15T18:02:17.375Z,100676.81
2022-12-15T18:04:44.317Z,100668.34
2022-12-15T18:07:20.259Z,100682.34
2022-12-15T18:09:47.664Z,100672.78
2022-12-15T18:12:20.470Z,100675.69
2022-12-15T18:14:47.014Z,100673.06
2022-12-15T18:17:13.813Z,100675.41
2022-12-15T18:19:40.409Z,100676.25
2022-12-15T18:22:14.310Z,100681.38
2022-12-15T18:24:40.893Z,100681.38
2022-12-15T18:27:28.562Z,100683.16
2022-12-15T18:29:56.431Z,100683.28
2022-12-15T18:32:25.946Z,100684.28
2022-12-15T18:34:53.569Z,100684.97
2022-12-15T18:37:22.869Z,100689.13
2022-12-15T18:39:50.496Z,100672.63
2022-12-15T18:42:19.629Z,100689.53
2022-12-15T18:44:48.991Z,100693.94
2022-12-15T18:47:18.359Z,100689.81
2022-12-15T18:49:45.242Z,100696.84
2022-12-15T18:52:17.189Z,100699.59
2022-12-15T18:54:44.088Z,100700.69
2022-12-15T18:57:26.523Z,100706.91
2022-12-15T19:00:01.675Z,100711.19
2022-12-15T19:02:28.411Z,100716.31
2022-12-15T19:04:54.949Z,100705.81
2022-12-15T19:07:21.474Z,100706.66
2022-12-15T19:09:49.470Z,100710.94
2022-12-15T19:12:20.034Z,100709.59
2022-12-15T19:14:49.643Z,100711.28
2022-12-15T19:17:40.093Z,100704.19
2022-12-15T19:20:34.075Z,100712.38
2022-12-15T19:23:00.894Z,100719.19
2022-12-15T19:25:29.664Z,100721.25
2022-12-15T19:27:59.617Z,100718.88
2022-12-15T19:30:28.875Z,100731.91
2022-12-15T19:32:55.556Z,100722.47
2022-12-15T19:35:22.227Z,100726.38
2022-12-15T19:37:49.919Z,100729.84
2022-12-15T19:40:27.461Z,100724.84
2022-12-15T19:42:55.501Z,100729.16
2022-12-15T19:45:27.655Z,100746.94
2022-12-15T19:47:54.301Z,100757.59
2022-12-15T19:50:28.056Z,100751.81
2022-12-15T19:53:11.002Z,100758.44
2022-12-15T19:55:38.609Z,100760.78
2022-12-15T19:58:29.665Z,100763.78
2022-12-15T20:00:58.856Z,100760.25
2022-12-15T20:03:26.667Z,100756.91
2022-12-15T20:05:55.558Z,100762.28
2022-12-15T20:08:26.004Z,100761.28
2022-12-15T20:10:53.909Z,100770.00
2022-12-15T20:13:21.562Z,100757.22
2022-12-15T20:15:48.289Z,100760.00
2022-12-15T20:18:14.828Z,100761.69
2022-12-15T20:20:45.448Z,100759.41
2022-12-15T20:23:16.782Z,100774.88
2022-12-15T20:25:43.862Z,100774.69
2022-12-15T20:28:15.861Z,100786.41
2022-12-15T20:30:43.025Z,100778.78
2022-12-15T20:33:13.053Z,100782.97
2022-12-15T20:35:41.479Z,100779.63
2022-12-15T20:38:34.208Z,100778.34
2022-12-15T20:41:02.300Z,100783.00
2022-12-15T20:43:31.613Z,100785.78
2022-12-15T20:46:16.063Z,100784.13
2022-12-15T20:48:43.585Z,100781.50
2022-12-15T20:51:15.628Z,100793.78
2022-12-15T20:53:43.743Z,100795.69
2022-12-15T20:56:10.526Z,100795.84
2022-12-15T20:58:40.209Z,100793.22
2022-12-15T21:01:21.111Z,100794.63
2022-12-15T21:03:50.169Z,100804.75
2022-12-15T21:06:18.545Z,100802.38
2022-12-15T21:08:45.289Z,100808.47
2022-12-15T21:11:25.492Z,100811.66
2022-12-15T21:13:54.539Z,100808.09
2022-12-15T21:16:26.040Z,100809.88
2022-12-15T21:21:45.883Z,100817.75
2022-12-15T21:24:19.711Z,100833.53
2022-12-15T21:26:46.790Z,100825.91
2022-12-15T21:29:16.106Z,100829.47
2022-12-15T21:31:43.040Z,100837.75
2022-12-15T21:34:09.554Z,100836.22
2022-12-15T21:36:38.847Z,100848.78
2022-12-15T21:39:06.786Z,100851.41
2022-12-15T21:41:34.113Z,100852.94
2022-12-15T21:44:00.534Z,100855.56
2022-12-15T21:46:30.585Z,100865.00
2022-12-15T21:49:15.637Z,100862.50
2022-12-15T21:51:44.970Z,100859.94
2022-12-15T21:54:31.539Z,100866.00
2022-12-15T21:56:59.649Z,100853.09
2022-12-15T21:59:29.427Z,100866.53
2022-12-15T22:01:57.593Z,100874.28
2022-12-15T22:04:27.772Z,100870.16
2022-12-15T22:06:54.220Z,100856.91
2022-12-15T22:09:21.729Z,100860.94
2022-12-15T22:11:50.990Z,100862.41
2022-12-15T22:14:29.487Z,100865.44
2022-12-15T22:16:57.184Z,100865.81
2022-12-15T22:19:24.120Z,100878.38
2022-12-15T22:21:50.928Z,100873.13
2022-12-15T22:24:19.087Z,100876.56
2022-12-15T22:26:47.153Z,100875.50
2022-12-15T22:29:19.232Z,100874.78
2022-12-15T22:31:46.987Z,100879.47
2022-12-15T22:34:15.915Z,100880.31
2022-12-15T22:36:42.882Z,100880.56
2022-12-15T22:39:11.093Z,100871.97
2022-12-15T22:41:40.694Z,100883.53
2022-12-15T22:44:16.795Z,100884.78
2022-12-15T22:46:43.685Z,100889.06
2022-12-15T22:49:15.153Z,100880.47
2022-12-15T22:51:41.592Z,100876.03
2022-12-15T22:54:24.151Z,100881.75
2022-12-15T22:57:03.977Z,100877.94
2022-12-15T22:59:35.871Z,100879.78
2022-12-15T23:02:03.269Z,100870.25
2022-12-15T23:04:31.470Z,100883.97
2022-12-15T23:06:59.972Z,100878.44
2022-12-15T23:09:27.385Z,100870.81
2022-12-15T23:11:53.887Z,100889.22
2022-12-15T23:14:41.049Z,100893.50
2022-12-15T23:17:07.584Z,100894.75
2022-12-15T23:19:34.709Z,100899.41
2022-12-15T23:22:01.567Z,100888.81
2022-12-15T23:24:27.987Z,100907.56
2022-12-15T23:26:54.378Z,100908.75
2022-12-15T23:29:21.448Z,100898.06
2022-12-15T23:31:47.946Z,100912.97
2022-12-15T23:34:14.482Z,100913.94
2022-12-15T23:36:40.870Z,100909.28
2022-12-15T23:39:07.331Z,100916.81
2022-12-15T23:41:34.984Z,100917.63
2022-12-15T23:44:01.381Z,100917.91
2022-12-15T23:46:27.857Z,100926.72
2022-12-15T23:48:55.115Z,100926.50
2022-12-15T23:51:21.620Z,100930.53
2022-12-15T23:53:48.353Z,100917.31
2022-12-15T23:56:20.415Z,100941.63
2022-12-15T23:58:49.071Z,100936.63
